Bounty Hunter Series – ogromna pula festiwalu GGPoker!

0

Za kilka dni na GGPoker wystartuje kolejny festiwal. Będzie to wydarzenie, które spodoba się szczególnie fanom turniejów bounty, bo wszystkie rozgrywane będą w tym formacie.

Turnieje progressive knockout, czyli bounty są dzisiaj prawdopodobnie najpopularniejszym formatem pokera turniejowego. Możliwość zgarnięcia natychmiastowej nagrody, przuciąga wielu pokerzystów od amatorów aż do zawodowców.

Dla wszystkich fanów tego typu turniejów GGPoker przygotowało Bounty Hunter Series – ogromny festiwal, podczas którego łączne pule wyniosą 30.000.000$. Akcja rozpocznie się już 27 lutego i potrwa do 14 marca. W tym czasie rozegrana zostanie ogromna liczba turniejów na różnych poziomach wpisowego.

Najważniejsze wydarzenia w skrócie:

  • Ponad 5.000.000$ w pulach podczas każdej niedzieli
  • Turniej Global MILLION$ – pula to 1.000.000$ a wpisowe 50$
  • Turnieje Freezout GGMasters 25$ Bounty – trzy eventy każdego dnia
  • Codzienne Main Eventy – zmieniające się odmiany i formaty pokera
  • Daily Big Game turniej – stack 100.000 żetonów w codziennym evencie

Harmonogram Bounty Hunters Series

Data Godzina Event Wpisowe Gwarancja
2/27 12:30 Sunday Blast-Off $210 $210 $50,000
2/27 12:30 Mini Blast-Off $21 $21 $50,000
2/27 13:15 Ultra Deepstack Bounty Turbo $52.50 $52.50 $25,000
2/27 13:15 Ultra Deepstack Bounty Turbo $5.25 $5.25 $10,000
2/27 14:00 Battle of Marathon $315 $315 $200,000
2/27 14:00 Battle of Marathon $31.50 $31.50 $100,000
2/27 14:30 Sunday Superstack HR $840 $840 $125,000
2/27 14:30 Sunday Superstack $84 $84 $125,000
2/27 15:30 Sunday Six-Max $126 $126 $100,000
2/27 15:40 Sunday Omaholic $126 $126 $25,000
2/27 16:30 Bounty Hunters HR Main Event $525, $1M GTD $525 $1,000,000
2/27 16:30 Bounty Hunters Sunday Freezeout $52.50 $52.50 $250,000
2/27 17:30 Sunday Big Game $210 $210 $300,000
2/27 17:40 Sunday Big Game Omaholic $210 $210 $40,000
2/27 18:30 GGMasters Bounty Special Edition $300 $300 $500,000
2/27 18:30 Bounty King Jr $31.50 [Freezeout] $31.50 $100,000
2/27 19:00 Sunday High Rollers Main Event $1,050 [Bounty Edition] $1,050 $500,000
2/27 19:10 Sunday Omaholic Main Event $1,050 [Bounty Edition] $1,050 $150,000
2/27 19:30 Big Antes Bounty $105 $105 $150,000
2/27 19:40 Big Antes Omaholic $105 $105 $25,000
2/27 20:30 Bounty Hunters HR Encore $525 $525 $150,000
2/27 20:30 Bounty Hunters Sunday Encore $52.50 $52.50 $125,000
2/27 21:00 Sunday Heater Special Edition $210 $210 $150,000
2/27 21:00 Sunday Heater Special Edition $25 $25 $70,000
2/27 21:30 Global MILLION$ Bounty Edition $50, $1M GTD [Stage 1] $50 $1,000,000
2/27 22:00 SUPER SIX HR $630 $630 $125,000
2/27 22:00 SUPER SIX $63 $63 $60,000
2/27 22:30 Ultra Deepstack Bounty Hyper $52.50 $52.50 $30,000
2/27 22:30 Ultra Deepstack Bounty Hyper $5.25 $5.25 $5,000
2/27 23:30 Last Call $210 $210 $50,000
2/27 23:30 Last Call $21 $21 $15,000
2/27 23:30 Global MILLION$ Bounty Edition $50, $1M GTD [Stage 1] $50 $1,000,000
2/28 00:00 Midnight Madness $84 $84 $40,000
2/28 00:00 Mini Madness $8.40 $8.40 $8,000
2/28 00:30 Global MILLION$ Bounty Edition $50, $1M GTD [Stage 1] $50 $1,000,000
2/28 02:30 Global MILLION$ Bounty Edition $50, $1M GTD [Stage 1] $50 $1,000,000
2/28 04:30 Global MILLION$ Bounty Edition $50, $1M GTD [Stage 1] $50 $1,000,000
2/28 06:30 Global MILLION$ Bounty Edition $50, $1M GTD [Stage 1] $50 $1,000,000
2/28 08:30 Global MILLION$ Bounty Edition $50, $1M GTD [Stage 1] $50 $1,000,000
2/28 10:30 Global MILLION$ Bounty Edition $50, $1M GTD [Stage 1] $50 $1,000,000
2/28 12:30 Bounty Blast-Off $88 $88 $20,000
2/28 12:30 Mini Blast-Off $8.80 $8.80 $10,000
2/28 12:30 Global MILLION$ Bounty Edition $50, $1M GTD [Stage 1] $50 $1,000,000
2/28 13:15 Ultra Deepstack Bounty Turbo $52.50 $52.50 $20,000
2/28 13:15 Ultra Deepstack Bounty Turbo $5.25 $5.25 $10,000
2/28 14:00 Monday Hangover $105 [Variable Levels] $105 $30,000
2/28 14:00 Mini Hangover $10.50 [Variable Levels] $10.50 $20,000
2/28 14:30 Global MILLION$ Bounty Edition $50, $1M GTD [Stage 1] $50 $1,000,000
2/28 15:00 Bounty Warm-Up $250 [Freezeout] $250 $50,000
2/28 15:00 GGMasters Bounty Warm-Up Special Edition $25 $25 $50,000
2/28 16:30 Bounty Hunters HR $525 [6-Max] $525 $200,000
2/28 16:30 Bounty Hunters Daily Main $52.50 [6-Max] $52.50 $125,000
2/28 16:30 Global MILLION$ Bounty Edition $50, $1M GTD [Stage 1] $50 $1,000,000
2/28 17:30 Big Game $210 $210 $125,000
2/28 17:40 Big Game Omaholic $210 $210 $25,000
2/28 18:30 Bounty King Special Edition $315 $315 $100,000
2/28 18:30 Bounty King Jr $31.50 $31.50 $75,000
2/28 18:30 Global MILLION$ Bounty Edition $50, $1M GTD [Stage 1] $50 $1,000,000
2/28 19:00 GGMasters Bounty Special Edition $25 $25 $50,000
2/28 19:10 Omaholic Bounty $25 $25 $10,000
2/28 19:30 Big Antes Bounty $105 $105 $40,000
2/28 19:30 Big Antes Bounty $10.50 $10.50 $25,000
2/28 20:30 Global MILLION$ Bounty Edition $50, $1M GTD [Stage 1] $50 $1,000,000
2/28 21:00 Daily Heater Special Edition $210 $210 $50,000
2/28 21:00 GGMasters Bounty Turbo Special Edition $25 $25 $25,000
2/28 22:00 SUPER SIX $63 $63 $25,000
2/28 22:00 Mini SUPER SIX $6.30 $6.30 $6,000
2/28 22:30 Ultra Deepstack Bounty Hyper $52.50 $52.50 $20,000
2/28 22:30 Ultra Deepstack Bounty Hyper $5.25 $5.25 $4,000
2/28 22:30 Global MILLION$ Bounty Edition $50, $1M GTD [Stage 1] $50 $1,000,000
2/28 23:30 Last Call $210 $210 $20,000
2/28 23:30 Last Call $25 $25 $10,000
3/1 00:00 Speed Racer Closer $84 [10 BB] $84 $10,000
3/1 00:00 Speed Racer Mini Closer $8.40 [10 BB] $8.40 $5,000
3/1 00:00 Speed Racer Closer $84 [10 BB] $84 $10,000
3/1 00:00 Speed Racer Mini Closer $8.40 [10 BB] $8.40 $5,000
3/1 00:30 Global MILLION$ Bounty Edition $50, $1M GTD [Stage 1] $50 $1,000,000
3/1 02:30 Global MILLION$ Bounty Edition $50, $1M GTD [Stage 1] $50 $1,000,000
3/1 04:30 Global MILLION$ Bounty Edition $50, $1M GTD [Stage 1] $50 $1,000,000
3/1 06:30 Global MILLION$ Bounty Edition $50, $1M GTD [Stage 1] $50 $1,000,000
3/1 08:30 Global MILLION$ Bounty Edition $50, $1M GTD [Stage 1] $50 $1,000,000
3/1 10:30 Global MILLION$ Bounty Edition $50, $1M GTD [Stage 1] $50 $1,000,000
3/1 12:30 Bounty Blast-Off $88 $88 $20,000
3/1 12:30 Mini Blast-Off $8.80 $8.80 $10,000
3/1 12:30 Global MILLION$ Bounty Edition $50, $1M GTD [Stage 1] $50 $1,000,000
3/1 13:15 Ultra Deepstack Bounty Turbo $52.50 $52.50 $20,000
3/1 13:15 Ultra Deepstack Bounty Turbo $5.25 $5.25 $10,000
3/1 14:00 Tuesday Hangover $105 [Variable Levels] $105 $30,000
3/1 14:00 Mini Hangover $10.50 [Variable Levels] $10.50 $20,000
3/1 14:30 Global MILLION$ Bounty Edition $50, $1M GTD [Stage 1] $50 $1,000,000
3/1 15:00 Bounty Warm-Up $250 [Freezeout] $250 $50,000
3/1 15:00 GGMasters Bounty Warm-Up Special Edition $25 $25 $50,000
3/1 16:30 Bounty Hunters HR $525 [Deepstack] $525 $200,000
3/1 16:30 Bounty Hunters Daily Main $52.50 [Deepstack] $52.50 $125,000
3/1 16:30 Global MILLION$ Bounty Edition $50, $1M GTD [Stage 1] $50 $1,000,000
3/1 17:30 Big Game $210 $210 $125,000
3/1 17:40 Big Game Omaholic $210 $210 $25,000
3/1 18:30 Bounty King Special Edition $315 $315 $100,000
3/1 18:30 Bounty King Jr $31.50 $31.50 $75,000
3/1 18:30 Global MILLION$ Bounty Edition $50, $1M GTD [Stage 1] $50 $1,000,000
3/1 19:00 GGMasters Bounty Special Edition $25 $25 $50,000
3/1 19:10 Omaholic Bounty $25 $25 $10,000
3/1 19:30 Big Antes Bounty $105 $105 $40,000
3/1 19:30 Big Antes Bounty $10.50 $10.50 $25,000
3/1 20:30 Global MILLION$ Bounty Edition $50, $1M GTD [Stage 1] $50 $1,000,000
3/1 21:00 Daily Heater Special Edition $210 $210 $50,000
3/1 21:00 GGMasters Bounty Turbo Special Edition $25 $25 $25,000
3/1 22:00 SUPER SIX $63 $63 $25,000
3/1 22:00 Mini SUPER SIX $6.30 $6.30 $6,000
3/1 22:30 Ultra Deepstack Bounty Hyper $52.50 $52.50 $20,000
3/1 22:30 Ultra Deepstack Bounty Hyper $5.25 $5.25 $4,000
3/1 22:30 Global MILLION$ Bounty Edition $50, $1M GTD [Stage 1] $50 $1,000,000
3/1 23:30 Last Call $210 $210 $20,000
3/1 23:30 Last Call $25 $25 $10,000
3/2 00:30 Global MILLION$ Bounty Edition $50, $1M GTD [Stage 1] $50 $1,000,000
3/2 02:30 Global MILLION$ Bounty Edition $50, $1M GTD [Stage 1] $50 $1,000,000
3/2 04:30 Global MILLION$ Bounty Edition $50, $1M GTD [Stage 1] $50 $1,000,000
3/2 06:30 Global MILLION$ Bounty Edition $50, $1M GTD [Stage 1] $50 $1,000,000
3/2 08:30 Global MILLION$ Bounty Edition $50, $1M GTD [Stage 1] $50 $1,000,000
3/2 10:30 Global MILLION$ Bounty Edition $50, $1M GTD [Stage 1] $50 $1,000,000
3/2 12:30 Bounty Blast-Off $88 $88 $20,000
3/2 12:30 Mini Blast-Off $8.80 $8.80 $10,000
3/2 12:30 Global MILLION$ Bounty Edition $50, $1M GTD [Stage 1] $50 $1,000,000
3/2 13:15 Ultra Deepstack Bounty Turbo $52.50 $52.50 $20,000
3/2 13:15 Ultra Deepstack Bounty Turbo $5.25 $5.25 $10,000
3/2 14:00 Wednesday Hangover $105 [Variable Levels] $105 $30,000
3/2 14:00 Mini Hangover $10.50 [Variable Levels] $10.50 $20,000
3/2 14:30 Global MILLION$ Bounty Edition $50, $1M GTD [Stage 1] $50 $1,000,000
3/2 15:00 Bounty Warm-Up $250 [Freezeout] $250 $40,000
3/2 15:00 GGMasters Bounty Warm-Up Special Edition $25 $25 $50,000
3/2 16:30 Bounty Hunters HR $525 [Double Stack] $525 $150,000
3/2 16:30 Bounty Hunters Daily Main $52.50 [Double Stack] $52.50 $125,000
3/2 16:30 Global MILLION$ Bounty Edition $50, $1M GTD [Stage 1] $50 $1,000,000
3/2 17:30 Big Game $210 $210 $100,000
3/2 17:40 Big Game Omaholic $210 $210 $20,000
3/2 18:30 Bounty King Special Edition $315 $315 $75,000
3/2 18:30 Bounty King Jr $31.50 $31.50 $75,000
3/2 18:30 Global MILLION$ Bounty Edition $50, $1M GTD [Stage 1] $50 $1,000,000
3/2 19:00 GGMasters Bounty Special Edition $25 $25 $50,000
3/2 19:10 Omaholic Bounty $25 $25 $10,000
3/2 19:30 Big Antes Bounty $105 $105 $40,000
3/2 19:30 Big Antes Bounty $10.50 $10.50 $25,000
3/2 20:30 Global MILLION$ Bounty Edition $50, $1M GTD [Stage 1] $50 $1,000,000
3/2 21:00 Daily Heater Special Edition $210 $210 $50,000
3/2 21:00 GGMasters Bounty Turbo Special Edition $25 $25 $25,000
3/2 22:00 SUPER SIX $63 $63 $25,000
3/2 22:00 Mini SUPER SIX $6.30 $6.30 $6,000
3/2 22:30 Ultra Deepstack Bounty Hyper $52.50 $52.50 $20,000
3/2 22:30 Ultra Deepstack Bounty Hyper $5.25 $5.25 $4,000
3/2 22:30 Global MILLION$ Bounty Edition $50, $1M GTD [Stage 1] $50 $1,000,000
3/2 23:30 Last Call $210 $210 $20,000
3/2 23:30 Last Call $25 $25 $10,000
3/3 00:00 Speed Racer Closer $84 [10 BB] $84 $10,000
3/3 00:00 Speed Racer Mini Closer $8.40 [10 BB] $8.40 $5,000
3/3 00:30 Global MILLION$ Bounty Edition $50, $1M GTD [Stage 1] $50 $1,000,000
3/3 02:30 Global MILLION$ Bounty Edition $50, $1M GTD [Stage 1] $50 $1,000,000
3/3 04:30 Global MILLION$ Bounty Edition $50, $1M GTD [Stage 1] $50 $1,000,000
3/3 06:30 Global MILLION$ Bounty Edition $50, $1M GTD [Stage 1] $50 $1,000,000
3/3 08:30 Global MILLION$ Bounty Edition $50, $1M GTD [Stage 1] $50 $1,000,000
3/3 10:30 Global MILLION$ Bounty Edition $50, $1M GTD [Stage 1] $50 $1,000,000
3/3 12:30 Bounty Blast-Off $88 $88 $20,000
3/3 12:30 Mini Blast-Off $8.80 $8.80 $10,000
3/3 12:30 Global MILLION$ Bounty Edition $50, $1M GTD [Stage 1] $50 $1,000,000
3/3 13:15 Ultra Deepstack Bounty Turbo $52.50 $52.50 $20,000
3/3 13:15 Ultra Deepstack Bounty Turbo $5.25 $5.25 $10,000
3/3 14:00 Thursday Hangover $105 [Variable Levels] $105 $30,000
3/3 14:00 Mini Hangover $10.50 [Variable Levels] $10.50 $20,000
3/3 14:30 Global MILLION$ Bounty Edition $50, $1M GTD [Stage 1] $50 $1,000,000
3/3 15:00 Bounty Warm-Up $250 [Freezeout] $250 $50,000
3/3 15:00 GGMasters Bounty Warm-Up Special Edition $25 $25 $50,000
3/3 16:30 Bounty Hunters HR $525 [Classic] $525 $200,000
3/3 16:30 Bounty Hunters Daily Main $52.50 [Classic] $52.50 $125,000
3/3 16:30 Global MILLION$ Bounty Edition $50, $1M GTD [Stage 1] $50 $1,000,000
3/3 17:30 Big Game $210 $210 $125,000
3/3 17:40 Big Game Omaholic $210 $210 $25,000
3/3 18:30 Bounty King Special Edition $315 $315 $100,000
3/3 18:30 Bounty King Jr $31.50 $31.50 $75,000
3/3 18:30 Global MILLION$ Bounty Edition $50, $1M GTD [Stage 1] $50 $1,000,000
3/3 19:00 GGMasters Bounty Special Edition $25 $25 $50,000
3/3 19:10 Omaholic Bounty $25 $25 $10,000
3/3 19:30 Big Antes Bounty $105 $105 $40,000
3/3 19:30 Big Antes Bounty $10.50 $10.50 $25,000
3/3 20:30 Global MILLION$ Bounty Edition $50, $1M GTD [Stage 1] $50 $1,000,000
3/3 21:00 Daily Heater Special Edition $210 $210 $50,000
3/3 21:00 GGMasters Bounty Turbo Special Edition $25 $25 $25,000
3/3 22:00 SUPER SIX $63 $63 $25,000
3/3 22:00 Mini SUPER SIX $6.30 $6.30 $6,000
3/3 22:30 Ultra Deepstack Bounty Hyper $52.50 $52.50 $20,000
3/3 22:30 Ultra Deepstack Bounty Hyper $5.25 $5.25 $4,000
3/3 22:30 Global MILLION$ Bounty Edition $50, $1M GTD [Stage 1] $50 $1,000,000
3/3 23:30 Last Call $210 $210 $20,000
3/3 23:30 Last Call $25 $25 $10,000
3/4 00:00 Speed Racer Closer $84 [10 BB] $84 $10,000
3/4 00:00 Speed Racer Mini Closer $8.40 [10 BB] $8.40 $5,000
3/4 00:30 Global MILLION$ Bounty Edition $50, $1M GTD [Stage 1] $50 $1,000,000
3/4 02:30 Global MILLION$ Bounty Edition $50, $1M GTD [Stage 1] $50 $1,000,000
3/4 04:30 Global MILLION$ Bounty Edition $50, $1M GTD [Stage 1] $50 $1,000,000
3/4 06:30 Global MILLION$ Bounty Edition $50, $1M GTD [Stage 1] $50 $1,000,000
3/4 08:30 Global MILLION$ Bounty Edition $50, $1M GTD [Stage 1] $50 $1,000,000
3/4 10:30 Global MILLION$ Bounty Edition $50, $1M GTD [Stage 1] $50 $1,000,000
3/4 12:30 Bounty Blast-Off $88 $88 $15,000
3/4 12:30 Mini Blast-Off $8.80 $8.80 $10,000
3/4 12:30 Global MILLION$ Bounty Edition $50, $1M GTD [Stage 1] $50 $1,000,000
3/4 13:15 Ultra Deepstack Bounty Turbo $52.50 $52.50 $15,000
3/4 13:15 Ultra Deepstack Bounty Turbo $5.25 $5.25 $10,000
3/4 14:00 Friday Hangover $105 [Variable Levels] $105 $20,000
3/4 14:00 Mini Hangover $10.50 [Variable Levels] $10.50 $20,000
3/4 14:30 Global MILLION$ Bounty Edition $50, $1M GTD [Stage 1] $50 $1,000,000
3/4 15:00 Bounty Warm-Up $250 [Freezeout] $250 $35,000
3/4 15:00 GGMasters Bounty Warm-Up Special Edition $25 $25 $50,000
3/4 16:30 Bounty Hunters HR $525 [Ultradeep] $525 $125,000
3/4 16:30 Bounty Hunters Daily Main $52.50 [Ultradeep] $52.50 $100,000
3/4 16:30 Global MILLION$ Bounty Edition $50, $1M GTD [Stage 1] $50 $1,000,000
3/4 17:30 Big Game $210 $210 $75,000
3/4 17:40 Big Game Omaholic $210 $210 $20,000
3/4 18:30 Bounty King Special Edition $315 $315 $60,000
3/4 18:30 Bounty King Jr $31.50 $31.50 $75,000
3/4 18:30 Global MILLION$ Bounty Edition $50, $1M GTD [Stage 1] $50 $1,000,000
3/4 19:00 GGMasters Bounty Special Edition $25 $25 $50,000
3/4 19:10 Omaholic Bounty $25 $25 $10,000
3/4 19:30 Big Antes Bounty $105 $105 $30,000
3/4 19:30 Big Antes Bounty $10.50 $10.50 $25,000
3/4 20:30 Global MILLION$ Bounty Edition $50, $1M GTD [Stage 1] $50 $1,000,000
3/4 21:00 Daily Heater Special Edition $210 $210 $40,000
3/4 21:00 GGMasters Bounty Turbo Special Edition $25 $25 $25,000
3/4 22:00 SUPER SIX $63 $63 $20,000
3/4 22:00 Mini SUPER SIX $6.30 $6.30 $6,000
3/4 22:30 Ultra Deepstack Bounty Hyper $52.50 $52.50 $18,000
3/4 22:30 Ultra Deepstack Bounty Hyper $5.25 $5.25 $4,000
3/4 22:30 Global MILLION$ Bounty Edition $50, $1M GTD [Stage 1] $50 $1,000,000
3/4 23:30 Last Call $210 $210 $15,000
3/4 23:30 Last Call $25 $25 $7,500
3/5 00:00 Speed Racer Closer $84 [10 BB] $84 $7,500
3/5 00:00 Speed Racer Mini Closer $8.40 [10 BB] $8.40 $4,000
3/5 00:30 Global MILLION$ Bounty Edition $50, $1M GTD [Stage 1] $50 $1,000,000
3/5 02:30 Global MILLION$ Bounty Edition $50, $1M GTD [Stage 1] $50 $1,000,000
3/5 04:30 Global MILLION$ Bounty Edition $50, $1M GTD [Stage 1] $50 $1,000,000
3/5 06:30 Global MILLION$ Bounty Edition $50, $1M GTD [Stage 1] $50 $1,000,000
3/5 08:30 Global MILLION$ Bounty Edition $50, $1M GTD [Stage 1] $50 $1,000,000
3/5 10:30 Global MILLION$ Bounty Edition $50, $1M GTD [Stage 1] $50 $1,000,000
3/5 12:30 Bounty Blast-Off $88 $88 $15,000
3/5 12:30 Mini Blast-Off $8.80 $8.80 $10,000
3/5 12:30 Global MILLION$ Bounty Edition $50, $1M GTD [Stage 1] $50 $1,000,000
3/5 13:15 Ultra Deepstack Bounty Turbo $52.50 $52.50 $20,000
3/5 13:15 Ultra Deepstack Bounty Turbo $5.25 $5.25 $10,000
3/5 14:00 Saturday Hangover $105 [Variable Levels] $105 $25,000
3/5 14:00 Mini Hangover $10.50 [Variable Levels] $10.50 $20,000
3/5 14:30 Global MILLION$ Bounty Edition $50, $1M GTD [Stage 1] $50 $1,000,000
3/5 15:00 Bounty Warm-Up $250 [Freezeout] $250 $40,000
3/5 15:00 GGMasters Bounty Warm-Up Special Edition $25 $25 $50,000
3/5 16:30 Bounty Hunters HR $525 [Big Bounties] $525 $150,000
3/5 16:30 Bounty Hunters Daily Main $52.50 [Big Bounties] $52.50 $125,000
3/5 16:30 Global MILLION$ Bounty Edition $50, $1M GTD [Stage 1] $50 $1,000,000
3/5 17:30 Big Game $210 $210 $60,000
3/5 17:40 Big Game Omaholic $210 $210 $20,000
3/5 18:30 Bounty King Special Edition $315 $315 $75,000
3/5 18:30 Bounty King Jr $31.50 $31.50 $75,000
3/5 18:30 Global MILLION$ Bounty Edition $50, $1M GTD [Stage 1] $50 $1,000,000
3/5 19:00 GGMasters Bounty Special Edition $25 $25 $50,000
3/5 19:10 Omaholic Bounty $25 $25 $10,000
3/5 19:30 Big Antes Bounty $105 $105 $30,000
3/5 19:30 Big Antes Bounty $10.50 $10.50 $25,000
3/5 20:30 Global MILLION$ Bounty Edition $50, $1M GTD [Stage 1] $50 $1,000,000
3/5 21:00 Daily Heater Special Edition $210 $210 $40,000
3/5 21:00 GGMasters Bounty Turbo Special Edition $25 $25 $20,000
3/5 22:00 SUPER SIX $63 $63 $20,000
3/5 22:00 Mini SUPER SIX $6.30 $6.30 $6,000
3/5 22:30 Ultra Deepstack Bounty Hyper $52.50 $52.50 $15,000
3/5 22:30 Ultra Deepstack Bounty Hyper $5.25 $5.25 $4,000
3/5 22:30 Global MILLION$ Bounty Edition $50, $1M GTD [Stage 1] $50 $1,000,000
3/5 23:30 Last Call $210 $210 $15,000
3/5 23:30 Last Call $25 $25 $7,500
3/6 00:00 Speed Racer Closer $84 [10 BB] $84 $7,500
3/6 00:00 Speed Racer Mini Closer $8.40 [10 BB] $8.40 $4,000
3/6 00:30 Global MILLION$ Bounty Edition $50, $1M GTD [Stage 1] $50 $1,000,000
3/6 02:30 Global MILLION$ Bounty Edition $50, $1M GTD [Stage 1] $50 $1,000,000
3/6 04:30 Global MILLION$ Bounty Edition $50, $1M GTD [Stage 1] $50 $1,000,000
3/6 06:30 Global MILLION$ Bounty Edition $50, $1M GTD [Stage 1] $50 $1,000,000
3/6 08:30 Global MILLION$ Bounty Edition $50, $1M GTD [Stage 1] $50 $1,000,000
3/6 10:30 Global MILLION$ Bounty Edition $50, $1M GTD [Stage 1] $50 $1,000,000
3/6 12:30 Sunday Blast-Off $210 $210 $40,000
3/6 12:30 Mini Blast-Off $21 $21 $40,000
3/6 12:30 Global MILLION$ Bounty Edition $50, $1M GTD [Stage 1] $50 $1,000,000
3/6 13:15 Ultra Deepstack Bounty Turbo $52.50 $52.50 $25,000
3/6 13:15 Ultra Deepstack Bounty Turbo $5.25 $5.25 $10,000
3/6 14:00 Battle of Marathon $315 $315 $200,000
3/6 14:00 Battle of Marathon $31.50 $31.50 $100,000
3/6 14:30 Sunday Superstack HR $840 $840 $125,000
3/6 14:30 Sunday Superstack $84 $84 $125,000
3/6 14:30 Global MILLION$ Bounty Edition $50, $1M GTD [Stage 1] $50 $1,000,000
3/6 15:30 Sunday Six-Max $126 $126 $100,000
3/6 15:40 Sunday Omaholic $126 $126 $25,000
3/6 16:30 Bounty Hunters HR Main Event $525, $1M GTD $525 $1,000,000
3/6 16:30 Bounty Hunters Sunday Freezeout $52.50 $52.50 $250,000
3/6 16:30 Global MILLION$ Bounty Edition $50, $1M GTD [Stage 1] $50 $1,000,000
3/6 17:30 Sunday Big Game $210 $210 $300,000
3/6 17:40 Sunday Big Game Omaholic $210 $210 $40,000
3/6 18:00 Global MILLION$ Bounty Edition $50, $1M GTD [Last Chance] $50 $1,000,000
3/6 18:30 GGMasters Bounty Special Edition $300 $300 $500,000
3/6 18:30 Bounty King Jr $31.50 [Freezeout] $31.50 $100,000
3/6 19:00 Sunday High Rollers Main Event $1,050 [Bounty Edition] $1,050 $500,000
3/6 19:00 Global MILLION$ Bounty Edition $50, $1M GTD [Last Minute] $50 $1,000,000
3/6 19:10 Sunday Omaholic Main Event $1,050 [Bounty Edition] $1,050 $125,000
3/6 19:30 Big Antes Bounty $105 $105 $150,000
3/6 19:40 Big Antes Omaholic $105 $105 $20,000
3/6 20:30 Bounty Hunters HR Encore $525 $525 $150,000
3/6 20:30 Bounty Hunters Sunday Encore $52.50 $52.50 $125,000
3/6 20:30 Global MILLION$ Bounty Edition $50, $1M GTD [Final Stage] $50 $1,000,000
3/6 21:00 Sunday Heater Special Edition $210 $210 $150,000
3/6 21:00 Sunday Heater Special Edition $25 $25 $70,000
3/6 22:00 SUPER SIX HR $630 $630 $125,000
3/6 22:00 SUPER SIX $63 $63 $60,000
3/6 22:30 Ultra Deepstack Bounty Hyper $52.50 $52.50 $30,000
3/6 22:30 Ultra Deepstack Bounty Hyper $5.25 $5.25 $5,000
3/6 23:30 Last Call $210 $210 $50,000
3/6 23:30 Last Call $21 $21 $15,000
3/7 00:00 Midnight Madness $84 $84 $40,000
3/7 00:00 Mini Madness $8.40 $8.40 $8,000
3/7 12:30 Bounty Blast-Off $88 $88 $20,000
3/7 12:30 Mini Blast-Off $8.80 $8.80 $10,000
3/7 13:15 Ultra Deepstack Bounty Turbo $52.50 $52.50 $20,000
3/7 13:15 Ultra Deepstack Bounty Turbo $5.25 $5.25 $10,000
3/7 14:00 Monday Hangover $105 [Variable Levels] $105 $30,000
3/7 14:00 Mini Hangover $10.50 [Variable Levels] $10.50 $20,000
3/7 15:00 Bounty Warm-Up $250 [Freezeout] $250 $50,000
3/7 15:00 GGMasters Bounty Warm-Up Special Edition $25 $25 $50,000
3/7 16:30 Bounty Hunters HR $525 [6-Max] $525 $200,000
3/7 16:30 Bounty Hunters Daily Main $52.50 [6-Max] $52.50 $125,000
3/7 17:30 Big Game $210 $210 $125,000
3/7 17:40 Big Game Omaholic $210 $210 $25,000
3/7 18:30 Bounty King Special Edition $315 $315 $100,000
3/7 18:30 Bounty King Jr $31.50 $31.50 $75,000
3/7 19:00 GGMasters Bounty Special Edition $25 $25 $50,000
3/7 19:10 Omaholic Bounty $25 $25 $10,000
3/7 19:30 Big Antes Bounty $105 $105 $40,000
3/7 19:30 Big Antes Bounty $10.50 $10.50 $25,000
3/7 21:00 Daily Heater Special Edition $210 $210 $50,000
3/7 21:00 GGMasters Bounty Turbo Special Edition $25 $25 $25,000
3/7 22:00 SUPER SIX $63 $63 $25,000
3/7 22:00 Mini SUPER SIX $6.30 $6.30 $6,000
3/7 22:30 Ultra Deepstack Bounty Hyper $52.50 $52.50 $20,000
3/7 22:30 Ultra Deepstack Bounty Hyper $5.25 $5.25 $4,000
3/7 23:30 Last Call $210 $210 $20,000
3/7 23:30 Last Call $25 $25 $10,000
3/8 00:00 Speed Racer Closer $84 [10 BB] $84 $10,000
3/8 00:00 Speed Racer Mini Closer $8.40 [10 BB] $8.40 $5,000
3/8 12:30 Bounty Blast-Off $88 $88 $20,000
3/8 12:30 Mini Blast-Off $8.80 $8.80 $10,000
3/8 13:15 Ultra Deepstack Bounty Turbo $52.50 $52.50 $20,000
3/8 13:15 Ultra Deepstack Bounty Turbo $5.25 $5.25 $10,000
3/8 14:00 Tuesday Hangover $105 [Variable Levels] $105 $30,000
3/8 14:00 Mini Hangover $10.50 [Variable Levels] $10.50 $20,000
3/8 15:00 Bounty Warm-Up $250 [Freezeout] $250 $50,000
3/8 15:00 GGMasters Bounty Warm-Up Special Edition $25 $25 $50,000
3/8 16:30 Bounty Hunters HR $525 [Deepstack] $525 $200,000
3/8 16:30 Bounty Hunters Daily Main $52.50 [Deepstack] $52.50 $125,000
3/8 17:30 Big Game $210 $210 $125,000
3/8 17:40 Big Game Omaholic $210 $210 $25,000
3/8 18:30 Bounty King Special Edition $315 $315 $100,000
3/8 18:30 Bounty King Jr $31.50 $31.50 $75,000
3/8 19:00 GGMasters Bounty Special Edition $25 $25 $50,000
3/8 19:10 Omaholic Bounty $25 $25 $10,000
3/8 19:30 Big Antes Bounty $105 $105 $40,000
3/8 19:30 Big Antes Bounty $10.50 $10.50 $25,000
3/8 21:00 Daily Heater Special Edition $210 $210 $50,000
3/8 21:00 GGMasters Bounty Turbo Special Edition $25 $25 $25,000
3/8 22:00 SUPER SIX $63 $63 $25,000
3/8 22:00 Mini SUPER SIX $6.30 $6.30 $6,000
3/8 22:30 Ultra Deepstack Bounty Hyper $52.50 $52.50 $20,000
3/8 22:30 Ultra Deepstack Bounty Hyper $5.25 $5.25 $4,000
3/8 23:30 Last Call $210 $210 $20,000
3/8 23:30 Last Call $25 $25 $10,000
3/9 00:00 Speed Racer Closer $84 [10 BB] $84 $10,000
3/9 00:00 Speed Racer Mini Closer $8.40 [10 BB] $8.40 $5,000
3/9 12:30 Bounty Blast-Off $88 $88 $20,000
3/9 12:30 Mini Blast-Off $8.80 $8.80 $10,000
3/9 13:15 Ultra Deepstack Bounty Turbo $52.50 $52.50 $20,000
3/9 13:15 Ultra Deepstack Bounty Turbo $5.25 $5.25 $10,000
3/9 14:00 Wednesday Hangover $105 [Variable Levels] $105 $30,000
3/9 14:00 Mini Hangover $10.50 [Variable Levels] $10.50 $20,000
3/9 15:00 Bounty Warm-Up $250 [Freezeout] $250 $40,000
3/9 15:00 GGMasters Bounty Warm-Up Special Edition $25 $25 $50,000
3/9 16:30 Bounty Hunters HR $525 [Double Stack] $525 $150,000
3/9 16:30 Bounty Hunters Daily Main $52.50 [Double Stack] $52.50 $125,000
3/9 17:30 Big Game $210 $210 $100,000
3/9 17:40 Big Game Omaholic $210 $210 $20,000
3/9 18:30 Bounty King Special Edition $315 $315 $75,000
3/9 18:30 Bounty King Jr $31.50 $31.50 $75,000
3/9 19:00 GGMasters Bounty Special Edition $25 $25 $50,000
3/9 19:10 Omaholic Bounty $25 $25 $10,000
3/9 19:30 Big Antes Bounty $105 $105 $40,000
3/9 19:30 Big Antes Bounty $10.50 $10.50 $25,000
3/9 21:00 Daily Heater Special Edition $210 $210 $50,000
3/9 21:00 GGMasters Bounty Turbo Special Edition $25 $25 $25,000
3/9 22:00 SUPER SIX $63 $63 $25,000
3/9 22:00 Mini SUPER SIX $6.30 $6.30 $6,000
3/9 22:30 Ultra Deepstack Bounty Hyper $52.50 $52.50 $20,000
3/9 22:30 Ultra Deepstack Bounty Hyper $5.25 $5.25 $4,000
3/9 23:30 Last Call $210 $210 $20,000
3/9 23:30 Last Call $25 $25 $10,000
3/10 00:00 Speed Racer Closer $84 [10 BB] $84 $10,000
3/10 00:00 Speed Racer Mini Closer $8.40 [10 BB] $8.40 $5,000
3/10 12:30 Bounty Blast-Off $88 $88 $20,000
3/10 12:30 Mini Blast-Off $8.80 $8.80 $10,000
3/10 13:15 Ultra Deepstack Bounty Turbo $52.50 $52.50 $20,000
3/10 13:15 Ultra Deepstack Bounty Turbo $5.25 $5.25 $10,000
3/10 14:00 Thursday Hangover $105 [Variable Levels] $105 $30,000
3/10 14:00 Mini Hangover $10.50 [Variable Levels] $10.50 $20,000
3/10 15:00 Bounty Warm-Up $250 [Freezeout] $250 $50,000
3/10 15:00 GGMasters Bounty Warm-Up Special Edition $25 $25 $50,000
3/10 16:30 Bounty Hunters HR $525 [Classic] $525 $200,000
3/10 16:30 Bounty Hunters Daily Main $52.50 [Classic] $52.50 $125,000
3/10 17:30 Big Game $210 $210 $125,000
3/10 17:40 Big Game Omaholic $210 $210 $25,000
3/10 18:30 Bounty King Special Edition $315 $315 $100,000
3/10 18:30 Bounty King Jr $31.50 $31.50 $75,000
3/10 19:00 GGMasters Bounty Special Edition $25 $25 $50,000
3/10 19:10 Omaholic Bounty $25 $25 $10,000
3/10 19:30 Big Antes Bounty $105 $105 $40,000
3/10 19:30 Big Antes Bounty $10.50 $10.50 $25,000
3/10 21:00 Daily Heater Special Edition $210 $210 $50,000
3/10 21:00 GGMasters Bounty Turbo Special Edition $25 $25 $25,000
3/10 22:00 SUPER SIX $63 $63 $25,000
3/10 22:00 Mini SUPER SIX $6.30 $6.30 $6,000
3/10 22:30 Ultra Deepstack Bounty Hyper $52.50 $52.50 $20,000
3/10 22:30 Ultra Deepstack Bounty Hyper $5.25 $5.25 $4,000
3/10 23:30 Last Call $210 $210 $20,000
3/10 23:30 Last Call $25 $25 $10,000
3/11 00:00 Speed Racer Closer $84 [10 BB] $84 $10,000
3/11 00:00 Speed Racer Mini Closer $8.40 [10 BB] $8.40 $5,000
3/11 12:30 Bounty Blast-Off $88 $88 $15,000
3/11 12:30 Mini Blast-Off $8.80 $8.80 $10,000
3/11 13:15 Ultra Deepstack Bounty Turbo $52.50 $52.50 $15,000
3/11 13:15 Ultra Deepstack Bounty Turbo $5.25 $5.25 $10,000
3/11 14:00 Friday Hangover $105 [Variable Levels] $105 $20,000
3/11 14:00 Mini Hangover $10.50 [Variable Levels] $10.50 $20,000
3/11 15:00 Bounty Warm-Up $250 [Freezeout] $250 $35,000
3/11 15:00 GGMasters Bounty Warm-Up Special Edition $25 $25 $50,000
3/11 16:30 Bounty Hunters HR $525 [Ultradeep] $525 $125,000
3/11 16:30 Bounty Hunters Daily Main $52.50 [Ultradeep] $52.50 $100,000
3/11 17:30 Big Game $210 $210 $75,000
3/11 17:40 Big Game Omaholic $210 $210 $20,000
3/11 18:30 Bounty King Special Edition $315 $315 $60,000
3/11 18:30 Bounty King Jr $31.50 $31.50 $75,000
3/11 19:00 GGMasters Bounty Special Edition $25 $25 $50,000
3/11 19:10 Omaholic Bounty $25 $25 $10,000
3/11 19:30 Big Antes Bounty $105 $105 $30,000
3/11 19:30 Big Antes Bounty $10.50 $10.50 $25,000
3/11 21:00 Daily Heater Special Edition $210 $210 $40,000
3/11 21:00 GGMasters Bounty Turbo Special Edition $25 $25 $25,000
3/11 22:00 SUPER SIX $63 $63 $20,000
3/11 22:00 Mini SUPER SIX $6.30 $6.30 $6,000
3/11 22:30 Ultra Deepstack Bounty Hyper $52.50 $52.50 $18,000
3/11 22:30 Ultra Deepstack Bounty Hyper $5.25 $5.25 $4,000
3/11 23:30 Last Call $210 $210 $15,000
3/11 23:30 Last Call $25 $25 $7,500
3/12 00:00 Speed Racer Closer $84 [10 BB] $84 $7,500
3/12 00:00 Speed Racer Mini Closer $8.40 [10 BB] $8.40 $4,000
3/12 12:30 Bounty Blast-Off $88 $88 $15,000
3/12 12:30 Mini Blast-Off $8.80 $8.80 $10,000
3/12 13:15 Ultra Deepstack Bounty Turbo $52.50 $52.50 $20,000
3/12 13:15 Ultra Deepstack Bounty Turbo $5.25 $5.25 $10,000
3/12 14:00 Saturday Hangover $105 [Variable Levels] $105 $25,000
3/12 14:00 Mini Hangover $10.50 [Variable Levels] $10.50 $20,000
3/12 15:00 Bounty Warm-Up $250 [Freezeout] $250 $40,000
3/12 15:00 GGMasters Bounty Warm-Up Special Edition $25 $25 $50,000
3/12 16:30 Bounty Hunters HR $525 [Big Bounties] $525 $150,000
3/12 16:30 Bounty Hunters Daily Main $52.50 [Big Bounties] $52.50 $125,000
3/12 17:30 Big Game $210 $210 $60,000
3/12 17:40 Big Game Omaholic $210 $210 $20,000
3/12 18:30 Bounty King Special Edition $315 $315 $75,000
3/12 18:30 Bounty King Jr $31.50 $31.50 $75,000
3/12 19:00 GGMasters Bounty Special Edition $25 $25 $50,000
3/12 19:10 Omaholic Bounty $25 $25 $10,000
3/12 19:30 Big Antes Bounty $105 $105 $30,000
3/12 19:30 Big Antes Bounty $10.50 $10.50 $25,000
3/12 21:00 Daily Heater Special Edition $210 $210 $40,000
3/12 21:00 GGMasters Bounty Turbo Special Edition $25 $25 $20,000
3/12 22:00 SUPER SIX $63 $63 $20,000
3/12 22:00 Mini SUPER SIX $6.30 $6.30 $6,000
3/12 22:30 Ultra Deepstack Bounty Hyper $52.50 $52.50 $15,000
3/12 22:30 Ultra Deepstack Bounty Hyper $5.25 $5.25 $4,000
3/12 23:30 Last Call $210 $210 $15,000
3/12 23:30 Last Call $25 $25 $7,500
3/13 00:00 Speed Racer Closer $84 [10 BB] $84 $7,500
3/13 00:00 Speed Racer Mini Closer $8.40 [10 BB] $8.40 $4,000
3/13 00:00 Midnight Madness $84 $84 $40,000
3/13 00:00 Mini Madness $8.40 $8.40 $8,000
3/13 12:30 Sunday Blast-Off $210 $210 $40,000
3/13 12:30 Mini Blast-Off $21 $21 $40,000
3/13 13:15 Ultra Deepstack Bounty Turbo $52.50 $52.50 $25,000
3/13 13:15 Ultra Deepstack Bounty Turbo $5.25 $5.25 $10,000
3/13 14:00 Battle of Marathon $315 $315 $200,000
3/13 14:00 Battle of Marathon $31.50 $31.50 $100,000
3/13 14:30 Sunday Superstack HR $840 $840 $125,000
3/13 14:30 Sunday Superstack $84 $84 $125,000
3/13 15:30 Sunday Six-Max $126 $126 $100,000
3/13 15:40 Sunday Omaholic $126 $126 $25,000
3/13 16:30 Bounty Hunters HR Main Event $525, $1M GTD $525 $1,000,000
3/13 16:30 Bounty Hunters Sunday Freezeout $52.50 $52.50 $250,000
3/13 17:30 Sunday Big Game $210 $210 $300,000
3/13 17:40 Sunday Big Game Omaholic $210 $210 $40,000
3/13 18:30 GGMasters Bounty Special Edition $300 $300 $500,000
3/13 18:30 Bounty King Jr $31.50 [Freezeout] $31.50 $100,000
3/13 19:00 Sunday High Rollers Main Event $1,050 [Bounty Edition] $1,050 $500,000
3/13 19:10 Sunday Omaholic Main Event $1,050 [Bounty Edition] $1,050 $125,000
3/13 19:30 Big Antes Bounty $105 $105 $150,000
3/13 19:40 Big Antes Omaholic $105 $105 $20,000
3/13 20:30 Bounty Hunters HR Encore $525 $525 $150,000
3/13 20:30 Bounty Hunters Sunday Encore $52.50 $52.50 $125,000
3/13 21:00 Sunday Heater Special Edition $210 $210 $150,000
3/13 21:00 Sunday Heater Special Edition $25 $25 $70,000
3/13 22:00 SUPER SIX HR $630 $630 $125,000
3/13 22:00 SUPER SIX $63 $63 $60,000
3/13 22:30 Ultra Deepstack Bounty Hyper $52.50 $52.50 $30,000
3/13 22:30 Ultra Deepstack Bounty Hyper $5.25 $5.25 $5,000
3/13 23:30 Last Call $210 $210 $50,000
3/13 23:30 Last Call $21 $21 $15,000
3/14 00:00 Midnight Madness $84 $84 $40,000
3/14 00:00 Mini Madness $8.40 $8.40 $8,000

Nie macie konta na GGPoker?

To doskonały moment, aby je założyć! Będziecie mogli korzystać ze wszystkich dodatkowych promocji.

Krok 1. Wyczyść „cookies” w przeglądarce (to bardzo ważne)

Krok 2. Skorzystaj z tego linku lub kliknij w poniższy banner – następnie ściągnij soft i załóż konto i skorzystaj z bogatych promocji na start, m.in: z bonusu 100% do 600$ (dwa do wyboru), promocji Honeymoon i promocji o łącznej wartości 10.000.000$ w każdym miesiącu.